Terminal Aerodrome Forecast
Issued by NWS

Home | Current Version | Previous Version | Text Only | Print | Product List | Glossary On
Versions: 1 2 3 4 5 6 7 8 9 10 11 12 13 14 15 16
000
FTUS46 KLOX 310500 RRA
TAFPMD
TAF
KPMD 310540Z 3106/0106 22006KT P6SM BKN100
     FM311400 VRB03KT P6SM BKN100
     FM311800 02008KT P6SM BKN200
     FM312100 03015G22KT P6SM SCT250
     FM010200 17007KT P6SM SKC=

USA.gov is the U.S. government's official web portal to all federal, state and local government web resources and services.